createdAt,value
2018-06-18T00:02:24.542Z,5.93
2018-06-18T00:04:53.307Z,6.20
2018-06-18T00:07:22.085Z,6.10
2018-06-18T00:09:50.778Z,6.07
2018-06-18T00:12:19.467Z,6.33
2018-06-18T00:14:48.165Z,6.60
2018-06-18T00:17:16.874Z,6.20
2018-06-18T00:19:45.702Z,5.60
2018-06-18T00:22:17.818Z,6.10
2018-06-18T00:24:48.260Z,6.00
2018-06-18T00:27:17.033Z,5.40
2018-06-18T00:29:45.736Z,5.97
2018-06-18T00:32:14.503Z,5.93
2018-06-18T00:34:43.196Z,5.53
2018-06-18T00:37:11.962Z,6.17
2018-06-18T00:39:40.643Z,5.90
2018-06-18T00:42:09.355Z,5.97
2018-06-18T00:44:38.717Z,6.07
2018-06-18T00:47:07.682Z,5.57
2018-06-18T00:49:36.643Z,5.57
2018-06-18T00:52:06.144Z,5.97
2018-06-18T00:54:35.659Z,5.73
2018-06-18T00:57:06.365Z,5.50
2018-06-18T00:59:35.793Z,6.60
2018-06-18T01:02:06.876Z,6.20
2018-06-18T01:04:35.949Z,6.20
2018-06-18T01:07:05.300Z,5.77
2018-06-18T01:09:34.594Z,6.03
2018-06-18T01:12:03.604Z,5.90
2018-06-18T01:14:32.706Z,5.53
2018-06-18T01:17:01.608Z,6.47
2018-06-18T01:19:30.586Z,6.10
2018-06-18T01:22:00.086Z,5.50
2018-06-18T01:25:05.068Z,5.80
2018-06-18T01:27:34.075Z,6.10
2018-06-18T01:30:03.282Z,5.80
2018-06-18T01:32:38.993Z,6.20
2018-06-18T01:35:08.970Z,6.70
2018-06-18T01:37:37.850Z,6.00
2018-06-18T01:40:06.860Z,6.40
2018-06-18T01:42:35.572Z,5.93
2018-06-18T01:45:04.351Z,6.00
2018-06-18T01:47:33.119Z,5.70
2018-06-18T01:50:01.846Z,7.80
2018-06-18T01:52:30.591Z,5.70
2018-06-18T01:54:59.311Z,5.93
2018-06-18T01:57:28.031Z,6.87
2018-06-18T01:59:56.745Z,5.90
2018-06-18T02:02:25.479Z,5.60
2018-06-18T02:04:54.212Z,6.40
2018-06-18T02:07:22.980Z,5.77
2018-06-18T02:09:51.733Z,5.40
2018-06-18T02:12:20.450Z,5.70
2018-06-18T02:14:49.173Z,6.00
2018-06-18T02:17:17.951Z,6.10
2018-06-18T02:19:46.737Z,5.53
2018-06-18T02:22:15.458Z,6.20
2018-06-18T02:24:44.181Z,6.27
2018-06-18T02:27:16.802Z,6.27
2018-06-18T02:29:51.897Z,6.53
2018-06-18T02:32:25.863Z,6.17
2018-06-18T02:34:59.333Z,7.20
2018-06-18T02:38:32.918Z,5.80
2018-06-18T02:41:01.706Z,5.63
2018-06-18T02:43:30.380Z,6.23
2018-06-18T02:45:59.114Z,6.40
2018-06-18T02:48:27.837Z,6.13
2018-06-18T02:50:56.664Z,7.10
2018-06-18T02:53:25.418Z,5.70
2018-06-18T02:55:54.132Z,5.27
2018-06-18T02:58:22.841Z,5.53
2018-06-18T03:00:51.611Z,6.93
2018-06-18T03:03:20.310Z,6.50
2018-06-18T03:05:48.999Z,6.00
2018-06-18T03:08:17.707Z,5.60
2018-06-18T03:10:46.406Z,5.70
2018-06-18T03:13:15.102Z,5.40
2018-06-18T03:15:43.846Z,5.97
2018-06-18T03:18:17.790Z,5.80
2018-06-18T03:20:51.832Z,5.70
2018-06-18T03:23:25.694Z,5.70
2018-06-18T03:25:59.515Z,6.13
2018-06-18T03:28:33.386Z,5.73
2018-06-18T03:31:24.914Z,5.60
2018-06-18T03:33:53.613Z,5.30
2018-06-18T03:36:22.346Z,6.80
2018-06-18T03:38:55.206Z,5.60
2018-06-18T03:41:25.911Z,5.47
2018-06-18T03:43:58.879Z,5.87
2018-06-18T03:46:27.570Z,5.80
2018-06-18T03:48:56.250Z,6.10
2018-06-18T03:51:24.944Z,6.07
2018-06-18T03:53:53.661Z,6.53
2018-06-18T03:56:22.315Z,5.77
2018-06-18T03:58:51.006Z,5.87
2018-06-18T04:01:30.742Z,5.43
2018-06-18T04:04:07.176Z,5.23
2018-06-18T04:06:41.305Z,5.90
2018-06-18T04:09:15.249Z,5.37
2018-06-18T04:11:49.257Z,5.97
2018-06-18T04:14:17.986Z,5.13
2018-06-18T04:16:46.753Z,5.50
2018-06-18T04:19:15.482Z,5.30
2018-06-18T04:21:44.165Z,5.63
2018-06-18T04:24:12.856Z,5.60
2018-06-18T04:26:41.939Z,6.10
2018-06-18T04:29:14.219Z,5.60
2018-06-18T04:31:42.985Z,5.87
2018-06-18T04:34:32.367Z,6.70
2018-06-18T04:37:01.161Z,6.43
2018-06-18T04:39:29.858Z,6.33
2018-06-18T04:42:03.801Z,5.83
2018-06-18T04:44:37.584Z,5.87
2018-06-18T04:47:11.663Z,5.20
2018-06-18T04:49:45.666Z,5.30
2018-06-18T04:52:14.435Z,5.60
2018-06-18T04:54:43.097Z,4.50
2018-06-18T04:57:11.793Z,4.70
2018-06-18T04:59:43.484Z,4.83
2018-06-18T05:02:12.174Z,5.00
2018-06-18T05:04:40.888Z,3.83
2018-06-18T05:07:09.620Z,4.27
2018-06-18T05:10:04.534Z,4.83
2018-06-18T05:12:33.267Z,4.37
2018-06-18T05:15:02.188Z,3.30
2018-06-18T05:17:30.870Z,3.60
2018-06-18T05:19:59.882Z,3.93
2018-06-18T05:22:28.611Z,3.47
2018-06-18T05:24:57.591Z,3.70
2018-06-18T05:27:32.183Z,4.00
2018-06-18T05:30:07.799Z,3.37
2018-06-18T05:32:36.558Z,3.97
2018-06-18T05:35:05.982Z,3.77
2018-06-18T05:37:42.902Z,3.50
2018-06-18T05:40:11.601Z,3.80
2018-06-18T05:42:40.300Z,3.17
2018-06-18T05:45:09.062Z,3.87
2018-06-18T05:47:37.761Z,3.70
2018-06-18T05:50:06.506Z,3.70
2018-06-18T05:52:35.219Z,3.50
2018-06-18T05:55:04.003Z,3.80
2018-06-18T05:57:33.388Z,4.03
2018-06-18T06:00:02.095Z,3.47
2018-06-18T06:02:30.791Z,3.30
2018-06-18T06:04:59.527Z,3.70
2018-06-18T06:07:28.251Z,3.50
2018-06-18T06:09:56.938Z,3.50
2018-06-18T06:12:25.642Z,3.60
2018-06-18T06:14:54.461Z,3.50
2018-06-18T06:17:23.140Z,3.50
2018-06-18T06:19:51.825Z,3.60
2018-06-18T06:22:20.644Z,3.23
2018-06-18T06:24:49.336Z,3.27
2018-06-18T06:27:18.018Z,3.30
2018-06-18T06:29:46.799Z,3.30
2018-06-18T06:32:15.508Z,3.07
2018-06-18T06:34:47.071Z,3.20
2018-06-18T06:37:15.765Z,3.50
2018-06-18T06:39:44.450Z,2.90
2018-06-18T06:42:16.300Z,3.20
2018-06-18T06:44:44.988Z,2.67
2018-06-18T06:47:13.783Z,3.20
2018-06-18T06:49:42.517Z,3.10
2018-06-18T06:52:11.303Z,3.20
2018-06-18T06:54:39.971Z,3.70
2018-06-18T06:57:08.693Z,3.10
2018-06-18T06:59:37.361Z,3.00
2018-06-18T07:02:06.104Z,2.93
2018-06-18T07:04:34.835Z,3.20
2018-06-18T07:07:03.489Z,3.20
2018-06-18T07:09:31.775Z,3.30
2018-06-18T07:12:00.479Z,3.33
2018-06-18T07:14:29.175Z,4.37
2018-06-18T07:16:57.859Z,3.20
2018-06-18T07:19:26.581Z,3.50
2018-06-18T07:21:55.302Z,3.30
2018-06-18T07:24:24.005Z,3.60
2018-06-18T07:26:52.711Z,3.20
2018-06-18T07:29:21.389Z,2.90
2018-06-18T07:31:50.061Z,2.97
2018-06-18T07:34:18.805Z,3.13
2018-06-18T07:36:47.118Z,3.00
2018-06-18T07:39:15.786Z,3.07
2018-06-18T07:41:44.506Z,3.27
2018-06-18T07:44:13.207Z,3.00
2018-06-18T07:46:41.895Z,3.40
2018-06-18T07:49:10.591Z,3.13
2018-06-18T07:51:39.338Z,3.30
2018-06-18T07:54:08.078Z,3.33
2018-06-18T07:56:36.803Z,3.60
2018-06-18T07:59:05.517Z,3.30
2018-06-18T08:01:34.221Z,3.50
2018-06-18T08:04:02.891Z,3.10
2018-06-18T08:06:31.554Z,2.80
2018-06-18T08:09:00.269Z,3.70
2018-06-18T08:11:28.970Z,3.30
2018-06-18T08:13:57.670Z,4.03
2018-06-18T08:16:26.351Z,3.50
2018-06-18T08:18:55.125Z,3.70
2018-06-18T08:21:23.834Z,3.40
2018-06-18T08:23:52.171Z,3.50
2018-06-18T08:26:20.864Z,3.60
2018-06-18T08:28:49.564Z,3.67
2018-06-18T08:31:18.235Z,3.53
2018-06-18T08:33:46.973Z,3.50
2018-06-18T08:36:15.866Z,3.63
2018-06-18T08:38:44.467Z,3.40
2018-06-18T08:41:13.181Z,3.57
2018-06-18T08:43:41.839Z,3.60
2018-06-18T08:46:10.547Z,3.67
2018-06-18T08:48:44.433Z,4.00
2018-06-18T08:51:18.291Z,3.57
2018-06-18T08:53:52.069Z,3.90
2018-06-18T08:56:26.031Z,3.43
2018-06-18T08:59:00.115Z,3.50
2018-06-18T09:01:31.555Z,3.33
2018-06-18T09:04:06.455Z,3.20
2018-06-18T09:06:35.203Z,4.00
2018-06-18T09:09:04.164Z,3.27
2018-06-18T09:11:32.858Z,3.23
2018-06-18T09:14:01.566Z,3.27
2018-06-18T09:16:30.286Z,3.60
2018-06-18T09:18:59.029Z,3.57
2018-06-18T09:21:27.338Z,3.23
2018-06-18T09:23:56.069Z,3.50
2018-06-18T09:26:24.763Z,3.27
2018-06-18T09:28:53.577Z,3.20
2018-06-18T09:31:22.274Z,3.40
2018-06-18T09:33:50.998Z,4.60
2018-06-18T09:36:19.704Z,3.70
2018-06-18T09:38:48.448Z,4.47
2018-06-18T09:41:17.162Z,3.50
2018-06-18T09:43:45.855Z,3.27
2018-06-18T09:46:14.560Z,3.07
2018-06-18T09:48:48.469Z,4.13
2018-06-18T09:51:22.435Z,3.50
2018-06-18T09:53:56.384Z,3.60
2018-06-18T09:56:30.373Z,3.47
2018-06-18T09:59:04.362Z,3.13
2018-06-18T10:01:33.819Z,4.10
2018-06-18T10:04:04.056Z,3.90
2018-06-18T10:06:34.973Z,3.63
2018-06-18T10:09:06.445Z,3.70
2018-06-18T10:11:35.986Z,3.33
2018-06-18T10:14:05.789Z,3.73
2018-06-18T10:16:34.513Z,3.00
2018-06-18T10:19:04.212Z,3.53
2018-06-18T10:21:32.927Z,3.40
2018-06-18T10:24:01.638Z,3.70
2018-06-18T10:26:30.373Z,3.90
2018-06-18T10:28:59.043Z,3.53
2018-06-18T10:31:27.721Z,3.60
2018-06-18T10:34:01.704Z,3.40
2018-06-18T10:36:35.641Z,3.13
2018-06-18T10:39:11.818Z,4.00
2018-06-18T10:41:45.747Z,3.90
2018-06-18T10:44:14.575Z,3.87
2018-06-18T10:46:43.229Z,3.67
2018-06-18T10:49:11.928Z,3.63
2018-06-18T10:51:40.616Z,3.70
2018-06-18T10:54:09.327Z,3.37
2018-06-18T10:56:38.014Z,3.60
2018-06-18T10:59:06.758Z,3.97
2018-06-18T11:01:35.502Z,3.50
2018-06-18T11:04:04.258Z,3.20
2018-06-18T11:06:33.043Z,3.50
2018-06-18T11:09:01.802Z,3.20
2018-06-18T11:11:30.605Z,3.27
2018-06-18T11:13:59.402Z,3.10
2018-06-18T11:16:28.222Z,3.03
2018-06-18T11:19:02.289Z,3.73
2018-06-18T11:21:36.374Z,3.87
2018-06-18T11:24:10.307Z,3.30
2018-06-18T11:26:44.230Z,4.03
2018-06-18T11:29:13.146Z,3.67
2018-06-18T11:31:41.818Z,3.63
2018-06-18T11:34:10.532Z,3.27
2018-06-18T11:36:39.228Z,3.13
2018-06-18T11:39:09.172Z,3.27
2018-06-18T11:41:38.016Z,4.03
2018-06-18T11:44:06.677Z,3.57
2018-06-18T11:46:35.460Z,3.50
2018-06-18T11:49:03.785Z,3.50
2018-06-18T11:51:32.466Z,3.40
2018-06-18T11:54:01.187Z,3.83
2018-06-18T12:02:30.097Z,3.70
2018-06-18T12:05:04.054Z,3.27
2018-06-18T12:07:38.044Z,3.70
2018-06-18T12:10:06.907Z,3.70
2018-06-18T12:12:42.871Z,3.70
2018-06-18T12:15:11.553Z,3.50
2018-06-18T12:17:40.283Z,3.63
2018-06-18T12:20:09.005Z,3.47
2018-06-18T12:22:37.685Z,3.70
2018-06-18T12:25:06.450Z,4.20
2018-06-18T12:27:35.758Z,3.93
2018-06-18T12:30:04.674Z,3.50
2018-06-18T12:32:33.400Z,3.73
2018-06-18T12:35:20.344Z,3.87
2018-06-18T12:37:49.065Z,3.47
2018-06-18T12:40:18.658Z,4.10
2018-06-18T12:42:55.092Z,4.13
2018-06-18T12:51:16.534Z,3.50
2018-06-18T12:54:48.046Z,3.87
2018-06-18T12:57:16.801Z,4.17
2018-06-18T12:59:45.485Z,3.73
2018-06-18T13:02:22.895Z,3.53
2018-06-18T13:04:54.555Z,3.90
2018-06-18T13:07:23.619Z,3.60
2018-06-18T13:09:52.324Z,3.63
2018-06-18T13:12:21.014Z,3.60
2018-06-18T13:14:49.726Z,3.73
2018-06-18T13:17:18.593Z,4.03
2018-06-18T13:19:59.321Z,3.80
2018-06-18T13:22:28.004Z,4.10
2018-06-18T13:24:56.664Z,4.30
2018-06-18T13:27:46.122Z,3.80
2018-06-18T13:30:14.874Z,3.80
2018-06-18T13:32:43.208Z,3.63
2018-06-18T13:35:16.562Z,3.90
2018-06-18T13:37:50.567Z,3.90
2018-06-18T13:40:24.468Z,3.77
2018-06-18T13:42:58.381Z,3.70
2018-06-18T13:45:32.700Z,3.80
2018-06-18T13:48:06.834Z,3.37
2018-06-18T13:50:42.186Z,3.60
2018-06-18T13:53:20.986Z,4.00
2018-06-18T13:55:57.635Z,3.67
2018-06-18T13:58:26.374Z,4.10
2018-06-18T14:01:11.984Z,3.77
2018-06-18T14:03:40.899Z,3.03
2018-06-18T14:06:09.238Z,3.60
2018-06-18T14:08:37.939Z,3.70
2018-06-18T14:14:05.441Z,4.33
2018-06-18T14:16:34.091Z,3.60
2018-06-18T14:24:56.036Z,3.23
2018-06-18T14:27:41.236Z,3.70
2018-06-18T14:30:15.222Z,3.53
2018-06-18T14:32:49.076Z,3.53
2018-06-18T14:35:23.094Z,3.40
2018-06-18T14:37:57.166Z,3.93
2018-06-18T14:40:25.861Z,3.90
2018-06-18T14:42:54.563Z,3.80
2018-06-18T14:45:23.286Z,3.67
2018-06-18T14:47:52.107Z,3.67
2018-06-18T14:50:20.784Z,3.60
2018-06-18T14:52:49.618Z,3.60
2018-06-18T14:55:18.301Z,3.67
2018-06-18T14:57:47.001Z,3.87
2018-06-18T15:00:23.349Z,3.87
2018-06-18T15:03:08.652Z,3.77
2018-06-18T15:05:39.677Z,3.70
2018-06-18T15:08:08.482Z,3.33
2018-06-18T15:10:42.515Z,3.90
2018-06-18T15:13:29.397Z,3.70
2018-06-18T15:16:03.462Z,3.70
2018-06-18T15:18:32.124Z,3.30
2018-06-18T15:21:02.632Z,3.67
2018-06-18T15:23:31.366Z,3.30
2018-06-18T15:26:00.051Z,3.97
2018-06-18T15:28:28.738Z,3.90
2018-06-18T15:30:57.502Z,3.50
2018-06-18T15:33:26.223Z,3.30
2018-06-18T15:35:54.895Z,3.50
2018-06-18T15:38:23.597Z,3.20
2018-06-18T15:40:52.487Z,3.70
2018-06-18T15:43:21.221Z,3.60
2018-06-18T15:45:49.956Z,3.33
2018-06-18T15:48:18.919Z,3.90
2018-06-18T15:50:47.600Z,4.00
2018-06-18T15:53:16.338Z,3.60
2018-06-18T15:55:45.734Z,3.47
2018-06-18T15:58:16.849Z,3.47
2018-06-18T16:00:45.504Z,3.57
2018-06-18T16:03:14.174Z,3.73
2018-06-18T16:05:42.875Z,3.20
2018-06-18T16:08:11.527Z,3.27
2018-06-18T16:10:40.390Z,3.67
2018-06-18T16:13:09.287Z,3.47
2018-06-18T16:15:37.970Z,3.40
2018-06-18T16:18:06.682Z,3.57
2018-06-18T16:20:35.397Z,3.80
2018-06-18T16:23:04.131Z,3.73
2018-06-18T16:25:32.958Z,3.60
2018-06-18T16:28:01.677Z,3.20
2018-06-18T16:30:30.393Z,3.80
2018-06-18T16:32:59.231Z,3.70
2018-06-18T16:35:27.991Z,3.60
2018-06-18T16:37:56.703Z,3.67
2018-06-18T16:40:25.387Z,3.30
2018-06-18T16:42:56.167Z,3.77
2018-06-18T16:45:24.880Z,3.80
2018-06-18T16:47:53.569Z,3.50
2018-06-18T16:50:21.922Z,4.27
2018-06-18T16:52:50.570Z,3.80
2018-06-18T16:55:19.678Z,3.50
2018-06-18T16:57:49.030Z,3.57
2018-06-18T17:00:17.930Z,3.47
2018-06-18T17:02:46.258Z,4.07
2018-06-18T17:05:15.147Z,3.47
2018-06-18T17:07:45.915Z,3.63
2018-06-18T17:10:14.642Z,3.67
2018-06-18T17:12:43.302Z,4.03
2018-06-18T17:18:03.584Z,3.70
2018-06-18T17:20:32.359Z,3.80
2018-06-18T17:23:10.895Z,3.80
2018-06-18T17:25:40.190Z,3.80
2018-06-18T17:28:09.313Z,3.83
2018-06-18T17:30:37.910Z,4.50
2018-06-18T17:33:07.740Z,4.20
2018-06-18T17:35:36.834Z,3.93
2018-06-18T17:38:05.570Z,4.33
2018-06-18T17:40:34.801Z,4.00
2018-06-18T17:43:03.498Z,4.30
2018-06-18T17:45:32.200Z,4.20
2018-06-18T17:48:00.866Z,3.87
2018-06-18T17:50:29.631Z,4.20
2018-06-18T17:52:58.300Z,4.10
2018-06-18T17:55:27.030Z,4.40
2018-06-18T17:57:56.101Z,3.53
2018-06-18T18:00:24.802Z,4.27
2018-06-18T18:02:53.507Z,4.60
2018-06-18T18:05:22.173Z,4.20
2018-06-18T18:07:58.469Z,3.90
2018-06-18T18:10:37.280Z,4.40
2018-06-18T18:13:06.021Z,4.30
2018-06-18T18:15:58.449Z,4.20
2018-06-18T18:18:28.092Z,4.10
2018-06-18T18:20:58.145Z,4.70
2018-06-18T18:23:26.814Z,4.47
2018-06-18T18:25:55.522Z,4.43
2018-06-18T18:28:24.223Z,4.20
2018-06-18T18:30:52.988Z,4.10
2018-06-18T18:33:21.894Z,4.50
2018-06-18T18:35:51.680Z,4.20
2018-06-18T18:38:20.376Z,4.80
2018-06-18T18:40:49.045Z,4.70
2018-06-18T18:43:17.803Z,4.30
2018-06-18T18:45:47.158Z,4.57
2018-06-18T18:48:15.872Z,4.33
2018-06-18T18:50:44.671Z,4.80
2018-06-18T18:59:20.565Z,4.40
2018-06-18T19:01:49.289Z,3.90
2018-06-18T19:04:21.081Z,4.20
2018-06-18T19:06:50.605Z,4.20
2018-06-18T19:09:20.658Z,4.93
2018-06-18T19:11:49.916Z,5.03
2018-06-18T19:14:22.226Z,4.50
2018-06-18T19:16:51.253Z,4.30
2018-06-18T19:19:26.016Z,4.20
2018-06-18T19:21:54.810Z,4.27
2018-06-18T19:24:23.590Z,4.40
2018-06-18T19:26:52.315Z,4.43
2018-06-18T19:29:21.030Z,4.33
2018-06-18T19:31:49.746Z,4.07
2018-06-18T19:34:21.337Z,4.20
2018-06-18T19:36:55.642Z,4.80
2018-06-18T19:39:30.377Z,4.97
2018-06-18T19:41:59.060Z,4.33
2018-06-18T19:44:31.729Z,4.63
2018-06-18T19:47:07.446Z,5.20
2018-06-18T19:49:36.190Z,4.70
2018-06-18T19:52:04.924Z,4.60
2018-06-18T19:57:30.418Z,4.13
2018-06-18T20:00:18.810Z,5.13
2018-06-18T20:02:47.607Z,4.03
2018-06-18T20:05:16.340Z,4.20
2018-06-18T20:07:53.306Z,4.63
2018-06-18T20:10:22.875Z,4.80
2018-06-18T20:12:51.589Z,4.60
2018-06-18T20:15:20.273Z,4.43
2018-06-18T20:17:53.547Z,5.00
2018-06-18T20:20:22.894Z,4.50
2018-06-18T20:22:54.986Z,4.83
2018-06-18T20:25:29.915Z,4.50
2018-06-18T20:27:58.750Z,5.60
2018-06-18T20:30:27.425Z,5.67
2018-06-18T20:32:56.171Z,4.80
2018-06-18T20:35:28.544Z,5.33
2018-06-18T20:37:57.327Z,5.00
2018-06-18T20:40:26.499Z,5.40
2018-06-18T20:42:55.343Z,4.80
2018-06-18T20:45:24.094Z,5.60
2018-06-18T20:47:53.846Z,5.33
2018-06-18T20:50:22.577Z,5.23
2018-06-18T20:52:51.387Z,5.40
2018-06-18T20:55:21.102Z,5.50
2018-06-18T20:57:50.219Z,5.33
2018-06-18T21:00:26.855Z,6.03
2018-06-18T21:02:55.566Z,5.50
2018-06-18T21:05:24.516Z,5.70
2018-06-18T21:07:54.314Z,5.70
2018-06-18T21:10:23.011Z,6.57
2018-06-18T21:12:51.705Z,6.90
2018-06-18T21:15:20.422Z,5.83
2018-06-18T21:17:49.111Z,6.80
2018-06-18T21:20:17.807Z,7.10
2018-06-18T21:22:46.512Z,6.70
2018-06-18T21:25:15.278Z,6.80
2018-06-18T21:27:43.995Z,6.70
2018-06-18T21:30:12.723Z,6.47
2018-06-18T21:32:41.408Z,7.33
2018-06-18T21:35:10.137Z,7.20
2018-06-18T21:37:38.811Z,7.10
2018-06-18T21:40:11.540Z,7.43
2018-06-18T21:42:40.296Z,7.70
2018-06-18T21:45:13.326Z,6.90
2018-06-18T21:47:42.032Z,7.03
2018-06-18T21:50:10.724Z,7.40
2018-06-18T21:52:39.430Z,7.00
2018-06-18T21:55:08.211Z,7.50
2018-06-18T21:57:36.946Z,6.83
2018-06-18T22:00:13.635Z,7.73
2018-06-18T22:02:42.446Z,6.70
2018-06-18T22:05:11.136Z,6.80
2018-06-18T22:07:40.054Z,6.37
2018-06-18T22:10:08.766Z,6.40
2018-06-18T22:12:37.504Z,6.10
2018-06-18T22:15:06.791Z,6.90
2018-06-18T22:17:35.484Z,6.87
2018-06-18T22:20:04.339Z,6.20
2018-06-18T22:22:33.023Z,6.70
2018-06-18T22:25:01.717Z,7.20
2018-06-18T22:27:30.538Z,7.70
2018-06-18T22:29:59.248Z,6.83
2018-06-18T22:32:27.937Z,7.30
2018-06-18T22:34:56.669Z,7.23
2018-06-18T22:37:25.426Z,8.40
2018-06-18T22:39:54.200Z,7.53
2018-06-18T22:42:22.954Z,7.10
2018-06-18T22:44:51.626Z,7.20
2018-06-18T22:47:20.334Z,7.47
2018-06-18T22:49:49.046Z,7.23
2018-06-18T22:52:17.800Z,7.40
2018-06-18T22:54:48.161Z,7.73
2018-06-18T22:57:17.394Z,8.07
2018-06-18T22:59:46.979Z,7.60
2018-06-18T23:02:18.893Z,6.87
2018-06-18T23:04:47.656Z,8.07
2018-06-18T23:07:16.371Z,7.63
2018-06-18T23:09:45.157Z,8.50
2018-06-18T23:12:14.105Z,8.10
2018-06-18T23:14:42.934Z,7.70
2018-06-18T23:17:11.674Z,7.23
2018-06-18T23:19:40.420Z,7.50
2018-06-18T23:22:09.134Z,7.70
2018-06-18T23:24:37.802Z,7.50
2018-06-18T23:27:07.050Z,8.53
2018-06-18T23:29:35.771Z,7.47
2018-06-18T23:32:04.553Z,7.70
2018-06-18T23:34:33.241Z,8.47
2018-06-18T23:37:01.926Z,7.40
2018-06-18T23:39:30.659Z,8.00
2018-06-18T23:41:59.407Z,8.60
2018-06-18T23:44:28.126Z,8.23
2018-06-18T23:46:56.831Z,8.20
2018-06-18T23:49:29.098Z,8.10
2018-06-18T23:51:57.827Z,8.33
2018-06-18T23:54:26.515Z,9.20
2018-06-18T23:56:55.276Z,7.50
2018-06-18T23:59:23.973Z,7.97
